sensor_id;sensor_type;location;lat;lon;timestamp;P1;durP1;ratioP1;P2;durP2;ratioP2
495;SDS011;39559;48.630;9.162;2023-09-08T00:00:46;7.67;;;6.50;;
495;SDS011;39559;48.630;9.162;2023-09-08T00:05:15;10.68;;;6.80;;
495;SDS011;39559;48.630;9.162;2023-09-08T00:07:41;8.77;;;7.63;;
495;SDS011;39559;48.630;9.162;2023-09-08T00:10:08;9.82;;;7.63;;
495;SDS011;39559;48.630;9.162;2023-09-08T00:12:33;8.83;;;7.50;;
495;SDS011;39559;48.630;9.162;2023-09-08T00:14:59;10.37;;;8.13;;
495;SDS011;39559;48.630;9.162;2023-09-08T00:17:26;7.10;;;6.40;;
495;SDS011;39559;48.630;9.162;2023-09-08T00:19:51;7.40;;;6.67;;
495;SDS011;39559;48.630;9.162;2023-09-08T00:22:17;8.77;;;7.07;;
495;SDS011;39559;48.630;9.162;2023-09-08T00:24:43;7.67;;;6.97;;
495;SDS011;39559;48.630;9.162;2023-09-08T00:29:11;8.88;;;6.72;;
495;SDS011;39559;48.630;9.162;2023-09-08T00:31:37;7.43;;;6.83;;
495;SDS011;39559;48.630;9.162;2023-09-08T00:34:02;8.30;;;7.03;;
495;SDS011;39559;48.630;9.162;2023-09-08T00:36:28;7.80;;;7.00;;
495;SDS011;39559;48.630;9.162;2023-09-08T00:38:54;11.80;;;7.70;;
495;SDS011;39559;48.630;9.162;2023-09-08T00:41:19;11.60;;;8.93;;
495;SDS011;39559;48.630;9.162;2023-09-08T00:43:45;7.70;;;6.70;;
495;SDS011;39559;48.630;9.162;2023-09-08T00:46:11;7.90;;;6.50;;
495;SDS011;39559;48.630;9.162;2023-09-08T00:48:37;7.30;;;6.57;;
495;SDS011;39559;48.630;9.162;2023-09-08T00:53:08;9.23;;;7.00;;
495;SDS011;39559;48.630;9.162;2023-09-08T00:55:35;7.75;;;6.50;;
495;SDS011;39559;48.630;9.162;2023-09-08T00:58:01;9.30;;;7.07;;
495;SDS011;39559;48.630;9.162;2023-09-08T01:00:27;7.68;;;6.85;;
495;SDS011;39559;48.630;9.162;2023-09-08T01:02:53;7.90;;;7.10;;
495;SDS011;39559;48.630;9.162;2023-09-08T01:05:20;8.90;;;7.60;;
495;SDS011;39559;48.630;9.162;2023-09-08T01:07:46;8.48;;;7.07;;
495;SDS011;39559;48.630;9.162;2023-09-08T01:10:14;8.00;;;6.47;;
495;SDS011;39559;48.630;9.162;2023-09-08T01:12:40;9.57;;;7.13;;
495;SDS011;39559;48.630;9.162;2023-09-08T01:17:03;8.15;;;7.28;;
495;SDS011;39559;48.630;9.162;2023-09-08T01:19:29;8.43;;;7.37;;
495;SDS011;39559;48.630;9.162;2023-09-08T01:22:11;7.97;;;7.03;;
495;SDS011;39559;48.630;9.162;2023-09-08T01:27:23;12.25;;;7.93;;
495;SDS011;39559;48.630;9.162;2023-09-08T01:29:51;9.05;;;8.13;;
495;SDS011;39559;48.630;9.162;2023-09-08T01:32:18;9.82;;;7.28;;
495;SDS011;39559;48.630;9.162;2023-09-08T01:34:48;10.23;;;7.70;;
495;SDS011;39559;48.630;9.162;2023-09-08T01:37:13;9.75;;;7.45;;
495;SDS011;39559;48.630;9.162;2023-09-08T01:41:00;11.07;;;7.30;;
495;SDS011;39559;48.630;9.162;2023-09-08T01:43:27;7.43;;;6.70;;
495;SDS011;39559;48.630;9.162;2023-09-08T01:45:53;10.03;;;7.57;;
495;SDS011;39559;48.630;9.162;2023-09-08T01:48:18;13.57;;;7.30;;
495;SDS011;39559;48.630;9.162;2023-09-08T01:50:44;8.90;;;6.90;;
495;SDS011;39559;48.630;9.162;2023-09-08T01:53:11;8.15;;;6.88;;
495;SDS011;39559;48.630;9.162;2023-09-08T01:55:37;8.10;;;7.30;;
495;SDS011;39559;48.630;9.162;2023-09-08T01:58:02;11.90;;;8.13;;
495;SDS011;39559;48.630;9.162;2023-09-08T02:00:28;8.30;;;7.07;;
495;SDS011;39559;48.630;9.162;2023-09-08T02:04:57;7.45;;;6.63;;
495;SDS011;39559;48.630;9.162;2023-09-08T02:07:22;9.53;;;7.33;;
495;SDS011;39559;48.630;9.162;2023-09-08T02:09:48;8.90;;;7.37;;
495;SDS011;39559;48.630;9.162;2023-09-08T02:12:13;9.03;;;8.03;;
495;SDS011;39559;48.630;9.162;2023-09-08T02:14:39;7.33;;;6.50;;
495;SDS011;39559;48.630;9.162;2023-09-08T02:17:04;8.03;;;7.10;;
495;SDS011;39559;48.630;9.162;2023-09-08T02:19:31;8.10;;;6.55;;
495;SDS011;39559;48.630;9.162;2023-09-08T02:21:57;8.83;;;7.50;;
495;SDS011;39559;48.630;9.162;2023-09-08T02:24:22;8.20;;;7.40;;
495;SDS011;39559;48.630;9.162;2023-09-08T02:28:53;8.70;;;7.43;;
495;SDS011;39559;48.630;9.162;2023-09-08T02:31:19;11.87;;;7.37;;
495;SDS011;39559;48.630;9.162;2023-09-08T02:33:44;10.13;;;8.30;;
495;SDS011;39559;48.630;9.162;2023-09-08T02:36:10;11.37;;;9.40;;
495;SDS011;39559;48.630;9.162;2023-09-08T02:38:35;9.40;;;7.90;;
495;SDS011;39559;48.630;9.162;2023-09-08T02:41:02;10.18;;;7.38;;
495;SDS011;39559;48.630;9.162;2023-09-08T02:43:28;9.33;;;7.37;;
495;SDS011;39559;48.630;9.162;2023-09-08T02:45:53;9.73;;;8.10;;
495;SDS011;39559;48.630;9.162;2023-09-08T02:48:19;13.27;;;8.40;;
495;SDS011;39559;48.630;9.162;2023-09-08T02:52:49;8.88;;;7.93;;
495;SDS011;39559;48.630;9.162;2023-09-08T02:55:15;9.50;;;8.03;;
495;SDS011;39559;48.630;9.162;2023-09-08T02:57:41;10.83;;;8.23;;
495;SDS011;39559;48.630;9.162;2023-09-08T03:00:07;9.83;;;7.53;;
495;SDS011;39559;48.630;9.162;2023-09-08T03:02:32;7.30;;;6.60;;
495;SDS011;39559;48.630;9.162;2023-09-08T03:04:59;8.60;;;7.30;;
495;SDS011;39559;48.630;9.162;2023-09-08T03:07:25;7.88;;;6.68;;
495;SDS011;39559;48.630;9.162;2023-09-08T03:09:52;8.43;;;7.05;;
495;SDS011;39559;48.630;9.162;2023-09-08T03:12:17;10.73;;;8.53;;
495;SDS011;39559;48.630;9.162;2023-09-08T03:16:47;14.48;;;7.82;;
495;SDS011;39559;48.630;9.162;2023-09-08T03:19:12;9.73;;;7.60;;
495;SDS011;39559;48.630;9.162;2023-09-08T03:21:38;8.17;;;7.27;;
495;SDS011;39559;48.630;9.162;2023-09-08T03:24:04;8.73;;;7.43;;
495;SDS011;39559;48.630;9.162;2023-09-08T03:26:29;11.13;;;8.05;;
495;SDS011;39559;48.630;9.162;2023-09-08T03:28:55;9.83;;;7.40;;
495;SDS011;39559;48.630;9.162;2023-09-08T03:31:21;10.50;;;7.30;;
495;SDS011;39559;48.630;9.162;2023-09-08T03:33:47;7.73;;;6.90;;
495;SDS011;39559;48.630;9.162;2023-09-08T03:36:12;10.50;;;7.67;;
495;SDS011;39559;48.630;9.162;2023-09-08T03:40:44;12.88;;;7.70;;
495;SDS011;39559;48.630;9.162;2023-09-08T03:43:09;11.00;;;7.90;;
495;SDS011;39559;48.630;9.162;2023-09-08T03:45:35;9.03;;;7.13;;
495;SDS011;39559;48.630;9.162;2023-09-08T03:48:00;7.97;;;7.07;;
495;SDS011;39559;48.630;9.162;2023-09-08T03:50:26;8.27;;;7.13;;
495;SDS011;39559;48.630;9.162;2023-09-08T03:52:52;8.70;;;7.23;;
495;SDS011;39559;48.630;9.162;2023-09-08T03:55:18;8.83;;;7.93;;
495;SDS011;39559;48.630;9.162;2023-09-08T03:57:44;11.30;;;7.38;;
495;SDS011;39559;48.630;9.162;2023-09-08T04:00:12;9.33;;;7.70;;
495;SDS011;39559;48.630;9.162;2023-09-08T04:04:40;8.27;;;6.63;;
495;SDS011;39559;48.630;9.162;2023-09-08T04:07:05;8.17;;;6.80;;
495;SDS011;39559;48.630;9.162;2023-09-08T04:09:31;8.70;;;7.33;;
495;SDS011;39559;48.630;9.162;2023-09-08T04:11:57;9.02;;;7.45;;
495;SDS011;39559;48.630;9.162;2023-09-08T04:14:22;7.27;;;6.20;;
495;SDS011;39559;48.630;9.162;2023-09-08T04:16:55;10.15;;;7.95;;
495;SDS011;39559;48.630;9.162;2023-09-08T04:19:21;8.60;;;6.80;;
495;SDS011;39559;48.630;9.162;2023-09-08T04:21:46;9.07;;;7.43;;
495;SDS011;39559;48.630;9.162;2023-09-08T04:24:12;7.20;;;6.50;;
495;SDS011;39559;48.630;9.162;2023-09-08T04:28:38;11.20;;;8.07;;
495;SDS011;39559;48.630;9.162;2023-09-08T04:31:04;11.03;;;7.70;;
495;SDS011;39559;48.630;9.162;2023-09-08T04:33:30;9.27;;;8.30;;
495;SDS011;39559;48.630;9.162;2023-09-08T04:35:56;8.73;;;7.30;;
495;SDS011;39559;48.630;9.162;2023-09-08T04:38:21;9.03;;;7.20;;
495;SDS011;39559;48.630;9.162;2023-09-08T04:40:47;8.20;;;7.40;;
495;SDS011;39559;48.630;9.162;2023-09-08T04:43:13;7.43;;;6.32;;
495;SDS011;39559;48.630;9.162;2023-09-08T04:45:39;12.97;;;7.40;;
495;SDS011;39559;48.630;9.162;2023-09-08T04:48:04;9.60;;;7.90;;
495;SDS011;39559;48.630;9.162;2023-09-08T04:52:35;8.98;;;8.05;;
495;SDS011;39559;48.630;9.162;2023-09-08T04:55:00;10.10;;;7.33;;
495;SDS011;39559;48.630;9.162;2023-09-08T04:57:26;8.90;;;8.00;;
495;SDS011;39559;48.630;9.162;2023-09-08T04:59:52;9.23;;;6.83;;
495;SDS011;39559;48.630;9.162;2023-09-08T05:02:17;11.50;;;7.57;;
495;SDS011;39559;48.630;9.162;2023-09-08T05:04:43;7.18;;;6.32;;
495;SDS011;39559;48.630;9.162;2023-09-08T05:07:09;7.90;;;6.80;;
495;SDS011;39559;48.630;9.162;2023-09-08T05:09:35;7.55;;;6.35;;
495;SDS011;39559;48.630;9.162;2023-09-08T05:12:01;8.23;;;6.93;;
495;SDS011;39559;48.630;9.162;2023-09-08T05:16:32;8.38;;;6.70;;
495;SDS011;39559;48.630;9.162;2023-09-08T05:19:15;8.00;;;7.20;;
495;SDS011;39559;48.630;9.162;2023-09-08T05:21:40;9.50;;;7.77;;
495;SDS011;39559;48.630;9.162;2023-09-08T05:24:08;8.20;;;6.90;;
495;SDS011;39559;48.630;9.162;2023-09-08T05:26:36;8.77;;;6.80;;
495;SDS011;39559;48.630;9.162;2023-09-08T05:29:03;7.82;;;6.43;;
495;SDS011;39559;48.630;9.162;2023-09-08T05:31:28;7.27;;;6.57;;
495;SDS011;39559;48.630;9.162;2023-09-08T05:33:54;8.73;;;6.17;;
495;SDS011;39559;48.630;9.162;2023-09-08T05:36:20;7.80;;;6.38;;
495;SDS011;39559;48.630;9.162;2023-09-08T05:40:31;8.70;;;7.05;;
495;SDS011;39559;48.630;9.162;2023-09-08T05:42:56;7.80;;;7.03;;
495;SDS011;39559;48.630;9.162;2023-09-08T05:45:22;9.23;;;7.03;;
495;SDS011;39559;48.630;9.162;2023-09-08T05:47:48;8.30;;;7.43;;
495;SDS011;39559;48.630;9.162;2023-09-08T05:50:15;9.10;;;8.15;;
495;SDS011;39559;48.630;9.162;2023-09-08T05:52:41;8.10;;;7.30;;
495;SDS011;39559;48.630;9.162;2023-09-08T05:55:07;10.30;;;7.13;;
495;SDS011;39559;48.630;9.162;2023-09-08T05:57:33;7.77;;;6.97;;
495;SDS011;39559;48.630;9.162;2023-09-08T06:00:05;10.40;;;8.18;;
495;SDS011;39559;48.630;9.162;2023-09-08T06:04:27;9.18;;;7.25;;
495;SDS011;39559;48.630;9.162;2023-09-08T06:06:52;11.60;;;7.03;;
495;SDS011;39559;48.630;9.162;2023-09-08T06:09:18;9.23;;;8.33;;
495;SDS011;39559;48.630;9.162;2023-09-08T06:11:43;10.53;;;8.87;;
495;SDS011;39559;48.630;9.162;2023-09-08T06:14:09;8.97;;;7.73;;
495;SDS011;39559;48.630;9.162;2023-09-08T06:16:35;10.67;;;8.27;;
495;SDS011;39559;48.630;9.162;2023-09-08T06:19:02;9.20;;;8.00;;
495;SDS011;39559;48.630;9.162;2023-09-08T06:21:28;9.55;;;8.45;;
495;SDS011;39559;48.630;9.162;2023-09-08T06:23:54;12.10;;;8.40;;
495;SDS011;39559;48.630;9.162;2023-09-08T06:28:24;9.40;;;8.15;;
495;SDS011;39559;48.630;9.162;2023-09-08T06:30:50;9.67;;;8.10;;
495;SDS011;39559;48.630;9.162;2023-09-08T06:33:15;10.30;;;8.00;;
495;SDS011;39559;48.630;9.162;2023-09-08T06:35:41;10.03;;;8.37;;
495;SDS011;39559;48.630;9.162;2023-09-08T06:38:06;10.10;;;8.13;;
495;SDS011;39559;48.630;9.162;2023-09-08T06:40:32;10.80;;;8.70;;
495;SDS011;39559;48.630;9.162;2023-09-08T06:42:58;9.57;;;8.57;;
495;SDS011;39559;48.630;9.162;2023-09-08T06:45:23;9.67;;;8.77;;
495;SDS011;39559;48.630;9.162;2023-09-08T06:47:49;10.17;;;9.07;;
495;SDS011;39559;48.630;9.162;2023-09-08T06:52:21;12.93;;;9.48;;
495;SDS011;39559;48.630;9.162;2023-09-08T06:54:47;12.00;;;9.50;;
495;SDS011;39559;48.630;9.162;2023-09-08T06:57:14;12.27;;;8.60;;
495;SDS011;39559;48.630;9.162;2023-09-08T06:59:42;9.52;;;8.55;;
495;SDS011;39559;48.630;9.162;2023-09-08T07:02:08;10.17;;;9.10;;
495;SDS011;39559;48.630;9.162;2023-09-08T07:04:34;10.80;;;8.97;;
495;SDS011;39559;48.630;9.162;2023-09-08T07:07:00;14.10;;;9.40;;
495;SDS011;39559;48.630;9.162;2023-09-08T07:09:32;16.58;;;9.85;;
495;SDS011;39559;48.630;9.162;2023-09-08T07:12:04;14.15;;;10.52;;
495;SDS011;39559;48.630;9.162;2023-09-08T07:16:19;11.00;;;9.18;;
495;SDS011;39559;48.630;9.162;2023-09-08T07:18:45;14.67;;;11.00;;
495;SDS011;39559;48.630;9.162;2023-09-08T07:21:10;11.33;;;9.20;;
495;SDS011;39559;48.630;9.162;2023-09-08T07:23:36;11.97;;;10.70;;
495;SDS011;39559;48.630;9.162;2023-09-08T07:26:02;10.70;;;9.47;;
495;SDS011;39559;48.630;9.162;2023-09-08T07:28:28;13.17;;;10.03;;
495;SDS011;39559;48.630;9.162;2023-09-08T07:30:53;11.73;;;9.93;;
495;SDS011;39559;48.630;9.162;2023-09-08T07:33:25;10.55;;;9.45;;
495;SDS011;39559;48.630;9.162;2023-09-08T07:35:51;13.57;;;9.20;;
495;SDS011;39559;48.630;9.162;2023-09-08T07:40:17;15.07;;;11.10;;
495;SDS011;39559;48.630;9.162;2023-09-08T07:42:42;16.27;;;13.10;;
495;SDS011;39559;48.630;9.162;2023-09-08T07:45:08;14.70;;;12.33;;
495;SDS011;39559;48.630;9.162;2023-09-08T07:47:35;12.88;;;11.48;;
495;SDS011;39559;48.630;9.162;2023-09-08T07:50:16;16.25;;;11.80;;
495;SDS011;39559;48.630;9.162;2023-09-08T07:52:47;13.15;;;11.13;;
495;SDS011;39559;48.630;9.162;2023-09-08T07:55:13;13.88;;;10.60;;
495;SDS011;39559;48.630;9.162;2023-09-08T07:57:40;14.77;;;10.43;;
495;SDS011;39559;48.630;9.162;2023-09-08T08:00:08;10.98;;;9.38;;
495;SDS011;39559;48.630;9.162;2023-09-08T08:04:14;9.82;;;8.45;;
495;SDS011;39559;48.630;9.162;2023-09-08T08:06:39;9.73;;;8.77;;
495;SDS011;39559;48.630;9.162;2023-09-08T08:09:05;8.50;;;7.57;;
495;SDS011;39559;48.630;9.162;2023-09-08T08:11:31;9.20;;;7.70;;
495;SDS011;39559;48.630;9.162;2023-09-08T08:13:56;10.73;;;8.03;;
495;SDS011;39559;48.630;9.162;2023-09-08T08:16:22;10.00;;;7.87;;
495;SDS011;39559;48.630;9.162;2023-09-08T08:18:49;11.07;;;7.80;;
495;SDS011;39559;48.630;9.162;2023-09-08T08:21:15;8.77;;;7.87;;
495;SDS011;39559;48.630;9.162;2023-09-08T08:23:40;9.23;;;7.60;;
495;SDS011;39559;48.630;9.162;2023-09-08T08:28:12;11.30;;;7.20;;
495;SDS011;39559;48.630;9.162;2023-09-08T08:30:38;11.67;;;8.00;;
495;SDS011;39559;48.630;9.162;2023-09-08T08:33:03;8.07;;;7.00;;
495;SDS011;39559;48.630;9.162;2023-09-08T08:35:29;9.10;;;7.20;;
495;SDS011;39559;48.630;9.162;2023-09-08T08:37:57;8.97;;;7.30;;
495;SDS011;39559;48.630;9.162;2023-09-08T08:40:23;7.97;;;7.17;;
495;SDS011;39559;48.630;9.162;2023-09-08T08:42:58;11.33;;;7.90;;
495;SDS011;39559;48.630;9.162;2023-09-08T08:45:24;9.40;;;7.77;;
495;SDS011;39559;48.630;9.162;2023-09-08T08:47:50;9.40;;;7.53;;
495;SDS011;39559;48.630;9.162;2023-09-08T08:52:09;8.67;;;7.10;;
495;SDS011;39559;48.630;9.162;2023-09-08T08:54:37;7.90;;;7.10;;
495;SDS011;39559;48.630;9.162;2023-09-08T08:57:04;8.10;;;6.67;;
495;SDS011;39559;48.630;9.162;2023-09-08T08:59:30;11.43;;;7.03;;
495;SDS011;39559;48.630;9.162;2023-09-08T09:01:57;7.73;;;6.57;;
495;SDS011;39559;48.630;9.162;2023-09-08T09:04:25;9.77;;;6.87;;
495;SDS011;39559;48.630;9.162;2023-09-08T09:06:52;6.87;;;6.33;;
495;SDS011;39559;48.630;9.162;2023-09-08T09:09:19;9.43;;;6.80;;
495;SDS011;39559;48.630;9.162;2023-09-08T09:11:46;10.53;;;7.60;;
495;SDS011;39559;48.630;9.162;2023-09-08T09:16:06;7.80;;;6.67;;
495;SDS011;39559;48.630;9.162;2023-09-08T09:21:24;7.10;;;6.40;;
495;SDS011;39559;48.630;9.162;2023-09-08T09:24:16;7.70;;;6.90;;
495;SDS011;39559;48.630;9.162;2023-09-08T09:26:53;8.20;;;6.63;;
495;SDS011;39559;48.630;9.162;2023-09-08T09:29:18;6.20;;;5.70;;
495;SDS011;39559;48.630;9.162;2023-09-08T09:31:53;6.50;;;5.90;;
495;SDS011;39559;48.630;9.162;2023-09-08T09:34:21;8.30;;;7.10;;
495;SDS011;39559;48.630;9.162;2023-09-08T09:36:48;6.67;;;6.00;;
495;SDS011;39559;48.630;9.162;2023-09-08T09:40:03;9.10;;;6.90;;
495;SDS011;39559;48.630;9.162;2023-09-08T09:42:32;6.27;;;5.73;;
495;SDS011;39559;48.630;9.162;2023-09-08T09:45:00;7.53;;;6.30;;
495;SDS011;39559;48.630;9.162;2023-09-08T09:47:30;7.00;;;6.30;;
495;SDS011;39559;48.630;9.162;2023-09-08T09:49:56;6.57;;;5.90;;
495;SDS011;39559;48.630;9.162;2023-09-08T09:52:24;7.30;;;6.00;;
495;SDS011;39559;48.630;9.162;2023-09-08T09:54:52;8.53;;;6.83;;
495;SDS011;39559;48.630;9.162;2023-09-08T09:57:20;7.57;;;6.80;;
495;SDS011;39559;48.630;9.162;2023-09-08T09:59:47;7.67;;;6.60;;
495;SDS011;39559;48.630;9.162;2023-09-08T10:04:00;7.33;;;6.10;;
495;SDS011;39559;48.630;9.162;2023-09-08T10:06:32;6.13;;;5.53;;
495;SDS011;39559;48.630;9.162;2023-09-08T10:08:59;7.73;;;6.37;;
495;SDS011;39559;48.630;9.162;2023-09-08T10:11:42;7.07;;;6.30;;
495;SDS011;39559;48.630;9.162;2023-09-08T10:14:14;7.73;;;6.50;;
495;SDS011;39559;48.630;9.162;2023-09-08T10:16:42;7.37;;;6.67;;
495;SDS011;39559;48.630;9.162;2023-09-08T10:19:10;6.40;;;5.50;;
495;SDS011;39559;48.630;9.162;2023-09-08T10:21:41;6.20;;;5.70;;
495;SDS011;39559;48.630;9.162;2023-09-08T10:27:57;10.20;;;6.37;;
495;SDS011;39559;48.630;9.162;2023-09-08T10:30:23;7.63;;;6.40;;
495;SDS011;39559;48.630;9.162;2023-09-08T10:32:49;7.17;;;6.20;;
495;SDS011;39559;48.630;9.162;2023-09-08T10:35:16;6.87;;;6.17;;
495;SDS011;39559;48.630;9.162;2023-09-08T10:37:45;7.20;;;6.00;;
495;SDS011;39559;48.630;9.162;2023-09-08T10:40:23;6.67;;;6.07;;
495;SDS011;39559;48.630;9.162;2023-09-08T10:43:08;6.83;;;6.23;;
495;SDS011;39559;48.630;9.162;2023-09-08T10:45:34;7.20;;;6.20;;
495;SDS011;39559;48.630;9.162;2023-09-08T10:48:00;11.90;;;6.80;;
495;SDS011;39559;48.630;9.162;2023-09-08T10:52:05;7.20;;;6.43;;
495;SDS011;39559;48.630;9.162;2023-09-08T10:54:41;7.50;;;6.80;;
495;SDS011;39559;48.630;9.162;2023-09-08T10:57:12;7.70;;;6.90;;
495;SDS011;39559;48.630;9.162;2023-09-08T10:59:40;6.97;;;6.27;;
495;SDS011;39559;48.630;9.162;2023-09-08T11:02:31;6.80;;;6.10;;
495;SDS011;39559;48.630;9.162;2023-09-08T11:05:09;7.43;;;6.73;;
495;SDS011;39559;48.630;9.162;2023-09-08T11:07:37;7.27;;;6.50;;
495;SDS011;39559;48.630;9.162;2023-09-08T11:10:03;6.30;;;5.70;;
495;SDS011;39559;48.630;9.162;2023-09-08T11:12:30;8.47;;;6.27;;
495;SDS011;39559;48.630;9.162;2023-09-08T11:15:53;6.20;;;5.60;;
495;SDS011;39559;48.630;9.162;2023-09-08T11:18:32;5.60;;;5.20;;
495;SDS011;39559;48.630;9.162;2023-09-08T11:20:59;8.73;;;6.70;;
495;SDS011;39559;48.630;9.162;2023-09-08T11:23:29;8.93;;;6.53;;
495;SDS011;39559;48.630;9.162;2023-09-08T11:25:56;6.70;;;6.07;;
495;SDS011;39559;48.630;9.162;2023-09-08T11:28:22;6.90;;;5.80;;
495;SDS011;39559;48.630;9.162;2023-09-08T11:30:49;7.90;;;6.27;;
495;SDS011;39559;48.630;9.162;2023-09-08T11:33:16;6.60;;;5.97;;
495;SDS011;39559;48.630;9.162;2023-09-08T11:35:47;6.73;;;5.93;;
495;SDS011;39559;48.630;9.162;2023-09-08T11:39:46;7.20;;;6.50;;
495;SDS011;39559;48.630;9.162;2023-09-08T11:42:13;7.07;;;6.40;;
495;SDS011;39559;48.630;9.162;2023-09-08T11:44:40;7.63;;;6.70;;
495;SDS011;39559;48.630;9.162;2023-09-08T11:47:08;6.90;;;5.87;;
495;SDS011;39559;48.630;9.162;2023-09-08T11:49:38;6.23;;;5.60;;
495;SDS011;39559;48.630;9.162;2023-09-08T11:52:06;8.17;;;6.10;;
495;SDS011;39559;48.630;9.162;2023-09-08T11:54:40;6.60;;;5.70;;
495;SDS011;39559;48.630;9.162;2023-09-08T11:57:06;5.57;;;4.93;;
495;SDS011;39559;48.630;9.162;2023-09-08T11:59:40;5.73;;;5.33;;
495;SDS011;39559;48.630;9.162;2023-09-08T12:03:51;6.30;;;5.70;;
495;SDS011;39559;48.630;9.162;2023-09-08T12:06:23;5.03;;;4.53;;
495;SDS011;39559;48.630;9.162;2023-09-08T12:08:49;6.73;;;5.03;;
495;SDS011;39559;48.630;9.162;2023-09-08T12:11:15;6.33;;;5.77;;
495;SDS011;39559;48.630;9.162;2023-09-08T12:13:41;6.17;;;4.80;;
495;SDS011;39559;48.630;9.162;2023-09-08T12:16:19;9.87;;;6.63;;
495;SDS011;39559;48.630;9.162;2023-09-08T12:18:48;6.70;;;5.30;;
495;SDS011;39559;48.630;9.162;2023-09-08T12:21:15;6.63;;;5.90;;
495;SDS011;39559;48.630;9.162;2023-09-08T12:23:48;6.07;;;5.57;;
495;SDS011;39559;48.630;9.162;2023-09-08T12:27:36;5.77;;;5.23;;
495;SDS011;39559;48.630;9.162;2023-09-08T12:30:02;5.93;;;5.00;;
495;SDS011;39559;48.630;9.162;2023-09-08T12:32:33;5.90;;;5.23;;
495;SDS011;39559;48.630;9.162;2023-09-08T12:35:00;6.73;;;5.97;;
495;SDS011;39559;48.630;9.162;2023-09-08T12:37:28;6.10;;;5.40;;
495;SDS011;39559;48.630;9.162;2023-09-08T12:39:55;5.80;;;5.30;;
495;SDS011;39559;48.630;9.162;2023-09-08T12:42:21;6.57;;;5.93;;
495;SDS011;39559;48.630;9.162;2023-09-08T12:44:51;7.13;;;6.00;;
495;SDS011;39559;48.630;9.162;2023-09-08T12:47:18;6.57;;;5.40;;
495;SDS011;39559;48.630;9.162;2023-09-08T12:51:32;6.30;;;5.80;;
495;SDS011;39559;48.630;9.162;2023-09-08T12:53:58;5.97;;;5.43;;
495;SDS011;39559;48.630;9.162;2023-09-08T12:56:23;5.73;;;5.23;;
495;SDS011;39559;48.630;9.162;2023-09-08T12:58:49;6.47;;;5.37;;
495;SDS011;39559;48.630;9.162;2023-09-08T13:01:14;6.00;;;5.50;;
495;SDS011;39559;48.630;9.162;2023-09-08T13:03:40;7.00;;;6.40;;
495;SDS011;39559;48.630;9.162;2023-09-08T13:06:06;7.37;;;6.73;;
495;SDS011;39559;48.630;9.162;2023-09-08T13:08:31;6.57;;;5.70;;
495;SDS011;39559;48.630;9.162;2023-09-08T13:10:57;12.83;;;5.70;;
495;SDS011;39559;48.630;9.162;2023-09-08T13:15:26;8.67;;;6.77;;
495;SDS011;39559;48.630;9.162;2023-09-08T13:17:52;7.10;;;6.40;;
495;SDS011;39559;48.630;9.162;2023-09-08T13:20:18;6.47;;;5.87;;
495;SDS011;39559;48.630;9.162;2023-09-08T13:22:44;7.63;;;6.40;;
495;SDS011;39559;48.630;9.162;2023-09-08T13:25:10;7.50;;;6.50;;
495;SDS011;39559;48.630;9.162;2023-09-08T13:27:36;7.60;;;5.60;;
495;SDS011;39559;48.630;9.162;2023-09-08T13:30:07;6.63;;;5.93;;
495;SDS011;39559;48.630;9.162;2023-09-08T13:32:37;6.23;;;5.63;;
495;SDS011;39559;48.630;9.162;2023-09-08T13:35:03;6.93;;;5.93;;
495;SDS011;39559;48.630;9.162;2023-09-08T13:39:21;6.80;;;6.10;;
495;SDS011;39559;48.630;9.162;2023-09-08T13:41:53;8.23;;;6.60;;
495;SDS011;39559;48.630;9.162;2023-09-08T13:44:20;8.50;;;6.47;;
495;SDS011;39559;48.630;9.162;2023-09-08T13:46:50;7.27;;;5.50;;
495;SDS011;39559;48.630;9.162;2023-09-08T13:49:17;7.50;;;6.70;;
495;SDS011;39559;48.630;9.162;2023-09-08T13:51:43;7.67;;;6.53;;
495;SDS011;39559;48.630;9.162;2023-09-08T13:54:10;6.20;;;5.60;;
495;SDS011;39559;48.630;9.162;2023-09-08T13:56:40;6.67;;;6.00;;
495;SDS011;39559;48.630;9.162;2023-09-08T13:59:06;6.20;;;5.23;;
495;SDS011;39559;48.630;9.162;2023-09-08T14:03:16;9.07;;;6.10;;
495;SDS011;39559;48.630;9.162;2023-09-08T14:05:43;4.73;;;4.33;;
495;SDS011;39559;48.630;9.162;2023-09-08T14:08:08;11.77;;;6.40;;
495;SDS011;39559;48.630;9.162;2023-09-08T14:10:35;6.10;;;4.90;;
495;SDS011;39559;48.630;9.162;2023-09-08T14:13:01;7.17;;;6.30;;
495;SDS011;39559;48.630;9.162;2023-09-08T14:15:26;5.73;;;5.23;;
495;SDS011;39559;48.630;9.162;2023-09-08T14:17:52;6.50;;;5.53;;
495;SDS011;39559;48.630;9.162;2023-09-08T14:20:18;6.47;;;5.87;;
495;SDS011;39559;48.630;9.162;2023-09-08T14:22:44;6.83;;;5.83;;
495;SDS011;39559;48.630;9.162;2023-09-08T14:27:06;7.63;;;6.40;;
495;SDS011;39559;48.630;9.162;2023-09-08T14:29:32;6.63;;;6.00;;
495;SDS011;39559;48.630;9.162;2023-09-08T14:31:59;5.60;;;5.07;;
495;SDS011;39559;48.630;9.162;2023-09-08T14:34:25;6.03;;;5.47;;
495;SDS011;39559;48.630;9.162;2023-09-08T14:36:50;5.90;;;5.40;;
495;SDS011;39559;48.630;9.162;2023-09-08T14:39:16;7.50;;;4.70;;
495;SDS011;39559;48.630;9.162;2023-09-08T14:41:44;6.20;;;5.63;;
495;SDS011;39559;48.630;9.162;2023-09-08T14:44:10;6.93;;;6.30;;
495;SDS011;39559;48.630;9.162;2023-09-08T14:46:36;5.97;;;5.47;;
495;SDS011;39559;48.630;9.162;2023-09-08T14:51:03;5.57;;;5.07;;
495;SDS011;39559;48.630;9.162;2023-09-08T14:53:29;6.23;;;5.30;;
495;SDS011;39559;48.630;9.162;2023-09-08T14:55:59;6.10;;;5.60;;
495;SDS011;39559;48.630;9.162;2023-09-08T14:58:25;5.40;;;4.80;;
495;SDS011;39559;48.630;9.162;2023-09-08T15:00:57;8.23;;;5.63;;
495;SDS011;39559;48.630;9.162;2023-09-08T15:03:28;7.10;;;5.50;;
495;SDS011;39559;48.630;9.162;2023-09-08T15:05:54;6.03;;;5.43;;
495;SDS011;39559;48.630;9.162;2023-09-08T15:08:20;7.13;;;6.37;;
495;SDS011;39559;48.630;9.162;2023-09-08T15:10:45;6.47;;;5.10;;
495;SDS011;39559;48.630;9.162;2023-09-08T15:14:55;6.90;;;6.20;;
495;SDS011;39559;48.630;9.162;2023-09-08T15:17:21;6.27;;;5.40;;
495;SDS011;39559;48.630;9.162;2023-09-08T15:19:47;9.73;;;6.33;;
495;SDS011;39559;48.630;9.162;2023-09-08T15:22:12;5.77;;;5.27;;
495;SDS011;39559;48.630;9.162;2023-09-08T15:24:38;6.83;;;6.13;;
495;SDS011;39559;48.630;9.162;2023-09-08T15:27:04;8.40;;;5.90;;
495;SDS011;39559;48.630;9.162;2023-09-08T15:29:29;9.00;;;6.90;;
495;SDS011;39559;48.630;9.162;2023-09-08T15:31:55;13.70;;;5.57;;
495;SDS011;39559;48.630;9.162;2023-09-08T15:34:21;6.50;;;5.90;;
495;SDS011;39559;48.630;9.162;2023-09-08T15:38:49;7.00;;;6.30;;
495;SDS011;39559;48.630;9.162;2023-09-08T15:41:15;10.63;;;6.30;;
495;SDS011;39559;48.630;9.162;2023-09-08T15:43:44;6.60;;;5.87;;
495;SDS011;39559;48.630;9.162;2023-09-08T15:46:12;6.37;;;5.77;;
495;SDS011;39559;48.630;9.162;2023-09-08T15:48:37;7.30;;;5.80;;
495;SDS011;39559;48.630;9.162;2023-09-08T15:51:03;5.30;;;4.80;;
495;SDS011;39559;48.630;9.162;2023-09-08T15:53:30;5.13;;;4.63;;
495;SDS011;39559;48.630;9.162;2023-09-08T15:55:56;5.80;;;5.30;;
495;SDS011;39559;48.630;9.162;2023-09-08T15:58:22;4.30;;;3.90;;
495;SDS011;39559;48.630;9.162;2023-09-08T16:02:40;10.83;;;5.30;;
495;SDS011;39559;48.630;9.162;2023-09-08T16:05:05;6.23;;;5.63;;
495;SDS011;39559;48.630;9.162;2023-09-08T16:07:32;5.40;;;4.90;;
495;SDS011;39559;48.630;9.162;2023-09-08T16:09:57;5.60;;;5.10;;
495;SDS011;39559;48.630;9.162;2023-09-08T16:12:23;4.70;;;4.30;;
495;SDS011;39559;48.630;9.162;2023-09-08T16:14:48;4.53;;;4.13;;
495;SDS011;39559;48.630;9.162;2023-09-08T16:17:14;4.70;;;4.30;;
495;SDS011;39559;48.630;9.162;2023-09-08T16:19:39;4.60;;;4.20;;
495;SDS011;39559;48.630;9.162;2023-09-08T16:22:05;4.00;;;3.70;;
495;SDS011;39559;48.630;9.162;2023-09-08T16:26:33;6.50;;;6.00;;
495;SDS011;39559;48.630;9.162;2023-09-08T16:28:59;6.53;;;5.93;;
495;SDS011;39559;48.630;9.162;2023-09-08T16:31:24;6.40;;;5.80;;
495;SDS011;39559;48.630;9.162;2023-09-08T16:33:50;5.77;;;5.10;;
495;SDS011;39559;48.630;9.162;2023-09-08T16:36:16;7.30;;;5.83;;